Time;durP1;ratioP1;P1;durP2;ratioP2;P2;SDS_P1;SDS_P2;PMS_P1;PMS_P2;Temp;Humidity;BMP_temperature;BMP_pressure;BME280_temperature;BME280_humidity;BME280_pressure;Samples;Min_cycle;Max_cycle;Signal;HPM_P1;HPM_P2
2021/07/11 00:00:22;;;;;;;17.08;8.95;;;19.70;99.90;;;20.41;71.62;101216.59;4976690;28;20214;-77
2021/07/11 00:02:49;;;;;;;14.30;7.35;;;19.70;99.90;;;20.39;71.32;101208.72;4977031;28;20209;-77
2021/07/11 00:05:23;;;;;;;15.60;7.35;;;19.70;99.90;;;20.37;71.80;101210.63;4977472;28;20324;-76
2021/07/11 00:07:55;;;;;;;15.25;7.20;;;19.70;99.90;;;20.33;71.55;101201.16;4977298;28;20225;-77
2021/07/11 00:10:23;;;;;;;15.85;8.13;;;19.60;99.90;;;20.33;71.23;101205.66;4994404;28;20538;-77
2021/07/11 00:12:51;;;;;;;17.70;7.60;;;19.60;99.90;;;20.31;71.72;101200.41;4995064;28;20179;-77
2021/07/11 00:15:22;;;;;;;14.98;8.13;;;19.60;99.90;;;20.30;71.93;101201.38;4995006;28;20194;-76
2021/07/11 00:17:50;;;;;;;19.25;7.70;;;19.60;99.90;;;20.28;71.84;101197.13;4976959;28;20218;-77
2021/07/11 00:20:21;;;;;;;16.02;7.82;;;19.60;99.90;;;20.26;71.43;101196.38;4977937;28;20199;-76
2021/07/11 00:22:48;;;;;;;13.80;7.00;;;19.60;99.90;;;20.24;71.75;101204.47;4995434;28;20179;-76
2021/07/11 00:25:16;;;;;;;15.30;7.70;;;19.60;99.90;;;20.24;71.90;101195.63;4979132;28;20589;-77
2021/07/11 00:27:45;;;;;;;15.10;7.82;;;19.60;99.90;;;20.20;72.18;101195.00;5012812;28;20218;-78
2021/07/11 00:30:15;;;;;;;14.25;7.07;;;19.60;99.90;;;20.19;72.23;101185.34;4981460;28;20573;-76
2021/07/11 00:32:42;;;;;;;15.00;7.40;;;19.50;99.90;;;20.17;72.10;101186.38;4985504;28;20282;-75
2021/07/11 00:35:11;;;;;;;15.48;7.63;;;19.50;99.90;;;20.16;72.03;101192.66;4990474;28;20203;-77
2021/07/11 00:37:39;;;;;;;13.90;7.72;;;19.50;99.90;;;20.14;72.50;101194.53;5013396;28;20207;-77
2021/07/11 00:40:11;;;;;;;14.45;6.88;;;19.50;99.90;;;20.12;72.67;101201.75;5030283;28;20210;-78
2021/07/11 00:42:41;;;;;;;14.45;7.40;;;19.50;99.90;;;20.12;72.65;101196.44;4996193;28;20209;-77
2021/07/11 00:45:12;;;;;;;13.23;7.10;;;19.50;99.90;;;20.11;72.14;101197.41;4978195;28;20242;-76
2021/07/11 00:47:43;;;;;;;15.60;7.55;;;19.50;99.90;;;20.08;72.08;101193.16;4994802;28;20211;-75
2021/07/11 00:50:13;;;;;;;14.00;7.55;;;19.40;99.90;;;20.09;71.62;101199.31;5009478;28;20225;-77
2021/07/11 00:52:42;;;;;;;14.32;7.10;;;19.40;99.90;;;20.07;71.42;101191.47;4977033;28;20195;-76
2021/07/11 00:55:14;;;;;;;18.40;7.53;;;19.40;99.90;;;20.05;71.56;101203.13;5009636;28;20195;-76
2021/07/11 00:57:41;;;;;;;14.50;7.45;;;19.40;99.90;;;20.04;71.38;101194.34;5009466;28;20230;-76
2021/07/11 01:00:12;;;;;;;15.68;7.50;;;19.40;99.90;;;20.00;71.54;101190.19;5008913;28;20237;-76
2021/07/11 01:03:26;;;;;;;13.85;7.30;;;19.30;99.90;;;19.99;71.95;101197.28;4985401;28;20587;-76
2021/07/11 01:05:56;;;;;;;13.20;6.80;;;19.30;99.90;;;19.96;72.39;101197.50;4994170;28;20210;-76
2021/07/11 01:08:42;;;;;;;17.08;7.22;;;19.30;99.90;;;19.94;72.73;101194.09;4976906;28;20221;-76
2021/07/11 01:11:13;;;;;;;14.18;7.43;;;19.30;99.90;;;19.91;72.91;101194.31;4977192;28;20258;-77
2021/07/11 01:13:43;;;;;;;14.60;7.50;;;19.30;99.90;;;19.86;73.22;101188.47;4977774;28;20195;-77
2021/07/11 01:16:18;;;;;;;15.80;7.32;;;19.30;99.90;;;19.85;72.96;101197.41;4977196;28;20662;-74
2021/07/11 01:18:52;;;;;;;16.15;7.20;;;19.20;99.90;;;19.84;72.96;101184.22;5008982;28;20210;-77
2021/07/11 01:21:25;;;;;;;13.55;7.25;;;19.20;99.90;;;19.83;73.50;101193.13;4976742;28;20195;-77
2021/07/11 01:24:07;;;;;;;16.10;7.90;;;19.20;99.90;;;19.83;73.65;101190.47;5013235;28;20191;-76
2021/07/11 01:26:38;;;;;;;14.48;7.25;;;19.20;99.90;;;19.79;73.44;101184.50;4998646;28;20187;-77
2021/07/11 01:29:07;;;;;;;13.70;6.65;;;19.20;99.90;;;19.77;73.57;101191.75;4981023;28;20211;-76
2021/07/11 01:31:35;;;;;;;17.02;7.32;;;19.10;99.90;;;19.76;73.65;101190.03;5013956;28;20191;-76
2021/07/11 01:34:04;;;;;;;13.80;7.50;;;19.10;99.90;;;19.71;73.53;101189.50;4981085;28;20195;-77
2021/07/11 01:36:31;;;;;;;15.00;7.35;;;19.10;99.90;;;19.67;73.38;101188.03;5013561;28;20561;-76
2021/07/11 01:39:01;;;;;;;14.68;7.85;;;19.10;99.90;;;19.65;73.86;101189.94;4981183;28;20211;-77
2021/07/11 01:41:38;;;;;;;14.30;7.45;;;19.10;99.90;;;19.63;73.57;101190.97;4981264;28;20281;-76
2021/07/11 01:44:08;;;;;;;15.32;7.97;;;19.00;99.90;;;19.62;74.29;101192.81;4981692;28;20201;-76
2021/07/11 01:46:36;;;;;;;13.48;7.30;;;19.00;99.90;;;19.59;74.28;101194.81;4980080;28;20253;-76
2021/07/11 01:49:05;;;;;;;14.52;7.18;;;19.00;99.90;;;19.58;74.80;101193.09;4980334;28;20222;-77
2021/07/11 01:51:32;;;;;;;14.20;7.57;;;19.00;99.90;;;19.56;74.15;101195.84;5014875;28;20246;-76
2021/07/11 01:54:02;;;;;;;13.93;7.35;;;19.00;99.90;;;19.54;74.24;101197.75;4999549;28;20274;-77
2021/07/11 01:56:30;;;;;;;15.38;7.57;;;19.00;99.90;;;19.53;74.28;101200.50;5013809;28;20195;-76
2021/07/11 01:58:59;;;;;;;14.75;7.60;;;18.90;99.90;;;19.51;74.09;101195.31;4982257;28;20651;-77
2021/07/11 02:01:31;;;;;;;15.70;7.22;;;18.90;99.90;;;19.52;74.81;101199.69;4985855;28;20318;-78
2021/07/11 02:04:08;;;;;;;15.07;7.93;;;18.90;99.90;;;19.54;74.90;101192.44;5019200;28;20187;-75
2021/07/11 02:06:35;;;;;;;15.25;7.68;;;18.90;99.90;;;19.55;74.49;101199.47;4996194;28;20281;-76
2021/07/11 02:09:13;;;;;;;15.25;7.60;;;18.90;99.90;;;19.55;74.33;101204.78;5029356;28;20211;-75
2021/07/11 02:11:41;;;;;;;17.08;8.35;;;18.90;99.90;;;19.52;74.46;101199.69;4996457;28;20196;-76
2021/07/11 02:14:18;;;;;;;14.20;7.38;;;18.90;99.90;;;19.51;74.45;101197.97;5028255;28;20198;-76
2021/07/11 02:16:55;;;;;;;13.88;7.32;;;18.90;99.90;;;19.48;74.55;101205.28;5007630;28;20182;-77
2021/07/11 02:19:37;;;;;;;14.38;7.40;;;18.90;99.90;;;19.46;74.59;101197.41;5012005;28;20230;-76
2021/07/11 02:22:05;;;;;;;14.63;7.63;;;18.80;99.90;;;19.45;74.38;101193.06;4980602;28;20732;-76
2021/07/11 02:24:38;;;;;;;14.48;7.43;;;18.90;99.90;;;19.47;74.75;101204.44;5016477;28;20197;-76
2021/07/11 02:27:09;;;;;;;15.25;7.85;;;18.80;99.90;;;19.44;74.78;101198.50;4981865;28;20195;-77
2021/07/11 02:29:41;;;;;;;14.75;7.75;;;18.80;99.90;;;19.41;74.88;101193.34;4981161;28;20191;-76
2021/07/11 02:32:10;;;;;;;15.73;7.78;;;18.80;99.90;;;19.38;74.66;101193.56;4982176;28;20623;-78
2021/07/11 02:34:39;;;;;;;16.88;7.68;;;18.80;99.90;;;19.36;74.73;101187.50;4982329;28;20258;-76
2021/07/11 02:37:09;;;;;;;13.57;7.18;;;18.70;99.90;;;19.35;74.66;101194.63;4999692;28;20194;-76
2021/07/11 02:39:48;;;;;;;14.05;7.88;;;18.70;99.90;;;19.32;74.59;101194.84;4991704;28;20195;-76
2021/07/11 02:42:18;;;;;;;14.90;7.80;;;18.70;99.90;;;19.31;74.50;101198.44;5031481;28;20182;-75
2021/07/11 02:44:52;;;;;;;15.68;7.90;;;18.70;99.90;;;19.31;75.23;101195.78;5016435;28;20183;-75
2021/07/11 02:47:28;;;;;;;16.50;7.60;;;18.70;99.90;;;19.29;75.10;101192.38;4997460;28;20198;-75
2021/07/11 02:50:01;;;;;;;12.82;7.10;;;18.70;99.90;;;19.31;74.74;101193.13;4997077;28;20214;-76
2021/07/11 02:52:34;;;;;;;14.63;7.07;;;18.70;99.90;;;19.30;75.03;101188.78;4996300;28;20198;-76
2021/07/11 02:55:07;;;;;;;14.27;7.50;;;18.70;99.90;;;19.31;75.00;101190.47;5011273;28;20214;-77
2021/07/11 02:57:38;;;;;;;12.63;6.90;;;18.70;99.90;;;19.29;74.93;101189.72;4979648;28;20301;-76
2021/07/11 03:00:11;;;;;;;13.93;7.75;;;18.70;99.90;;;19.27;75.17;101188.94;4978299;28;20273;-75
2021/07/11 03:02:45;;;;;;;14.10;7.45;;;18.70;99.90;;;19.26;75.24;101189.88;4995118;28;20576;-77
2021/07/11 03:05:23;;;;;;;15.23;7.82;;;18.60;99.90;;;19.26;74.91;101191.69;4979244;28;20592;-78
2021/07/11 03:07:52;;;;;;;15.02;7.57;;;18.60;99.90;;;19.25;75.26;101190.00;4994977;28;20623;-77
2021/07/11 03:10:21;;;;;;;17.35;8.05;;;18.60;99.90;;;19.24;75.20;101194.44;4994814;28;20174;-77
2021/07/11 03:12:53;;;;;;;17.20;7.72;;;18.60;99.90;;;19.25;75.14;101192.66;5010691;28;20206;-76
2021/07/11 03:15:23;;;;;;;13.77;7.30;;;18.60;99.90;;;19.24;75.23;101191.78;4977670;28;20775;-76
2021/07/11 03:17:56;;;;;;;12.98;7.30;;;18.60;99.90;;;19.25;75.27;101190.84;4977462;28;20261;-77
2021/07/11 03:20:27;;;;;;;13.45;7.20;;;18.60;99.90;;;19.24;75.27;101194.44;4995049;28;20210;-77
2021/07/11 03:22:56;;;;;;;15.48;7.35;;;18.60;99.90;;;19.23;75.22;101198.06;5010375;28;20681;-76
2021/07/11 03:25:27;;;;;;;14.13;7.25;;;18.60;99.90;;;19.24;75.45;101205.06;4977939;28;20302;-77
2021/07/11 03:27:56;;;;;;;14.27;7.53;;;18.60;99.90;;;19.22;75.19;101199.03;5010296;28;20235;-77
2021/07/11 03:30:27;;;;;;;17.17;8.25;;;18.60;99.90;;;19.20;75.19;101198.25;4995462;28;20190;-76
2021/07/11 03:32:59;;;;;;;14.15;8.07;;;18.60;99.90;;;19.21;75.35;101199.94;4977800;28;20191;-77
2021/07/11 03:35:33;;;;;;;13.38;7.30;;;18.60;99.90;;;19.22;75.09;101201.69;4978082;28;20673;-77
2021/07/11 03:38:04;;;;;;;15.38;7.60;;;18.60;99.90;;;19.23;75.39;101197.19;4977530;28;20214;-77
2021/07/11 03:40:37;;;;;;;15.55;7.60;;;18.60;99.90;;;19.24;75.10;101198.91;4977558;28;20624;-77
2021/07/11 03:43:10;;;;;;;13.55;7.28;;;18.60;99.90;;;19.23;75.20;101198.06;4978617;28;20265;-77
2021/07/11 03:45:47;;;;;;;15.40;7.97;;;18.60;99.90;;;19.22;75.40;101196.38;4994832;28;20207;-78
2021/07/11 03:48:18;;;;;;;14.65;7.60;;;18.70;99.90;;;19.21;75.34;101204.41;4995423;28;20214;-76
2021/07/11 03:50:50;;;;;;;14.10;7.65;;;18.60;99.90;;;19.21;75.26;101205.25;4979265;28;20198;-77
2021/07/11 03:53:23;;;;;;;14.52;8.25;;;18.60;99.90;;;19.23;75.24;101205.16;4988752;28;20202;-77
2021/07/11 03:55:52;;;;;;;13.70;7.50;;;18.60;99.90;;;19.24;75.18;101210.38;5014863;28;20242;-77
2021/07/11 03:58:22;;;;;;;14.93;7.00;;;18.70;99.90;;;19.25;75.27;101201.47;4998078;28;20221;-77
2021/07/11 04:00:52;;;;;;;13.93;7.00;;;18.70;99.90;;;19.26;75.40;101208.47;4982717;28;20209;-77
2021/07/11 04:03:23;;;;;;;15.82;8.27;;;18.70;99.90;;;19.30;75.23;101204.72;4977716;28;20583;-77
2021/07/11 04:05:51;;;;;;;15.15;7.63;;;18.70;99.90;;;19.31;75.18;101211.72;4976713;28;20222;-77
2021/07/11 04:08:22;;;;;;;12.70;7.03;;;18.70;99.90;;;19.34;75.03;101210.66;4994347;28;20293;-76
2021/07/11 04:10:49;;;;;;;14.55;8.32;;;18.70;99.90;;;19.35;75.24;101210.56;4977059;28;20253;-77
2021/07/11 04:13:19;;;;;;;13.55;6.88;;;18.80;99.90;;;19.36;75.14;101214.91;4994077;28;20186;-77
2021/07/11 04:15:52;;;;;;;13.95;7.40;;;18.80;99.90;;;19.40;75.19;101216.41;4976863;28;20195;-77
2021/07/11 04:18:22;;;;;;;14.48;7.47;;;18.80;99.90;;;19.42;75.21;101214.53;4976285;28;20218;-78
2021/07/11 04:20:53;;;;;;;14.48;7.20;;;18.80;99.90;;;19.45;74.97;101218.75;4994021;28;20195;-77
2021/07/11 04:23:24;;;;;;;13.40;6.60;;;18.90;99.90;;;19.46;75.13;101221.31;4976605;28;20194;-77
2021/07/11 04:25:55;;;;;;;14.82;7.32;;;18.90;99.90;;;19.49;75.19;101226.41;4976258;28;20600;-76
2021/07/11 04:28:25;;;;;;;12.43;6.90;;;18.90;99.90;;;19.52;74.83;101223.59;4976362;28;20302;-76
2021/07/11 04:30:53;;;;;;;12.70;6.75;;;18.90;99.90;;;19.54;74.76;101223.47;4993799;28;20658;-77
2021/07/11 04:33:21;;;;;;;14.82;7.15;;;19.00;99.90;;;19.56;74.76;101230.38;4976296;28;20199;-77
2021/07/11 04:35:47;;;;;;;13.73;7.40;;;19.00;99.90;;;19.59;74.81;101232.81;4993839;28;20187;-77
2021/07/11 04:38:14;;;;;;;13.88;7.30;;;19.10;99.90;;;19.63;74.81;101229.03;4993971;28;20215;-77
2021/07/11 04:40:42;;;;;;;12.30;6.80;;;19.10;99.90;;;19.67;74.12;101224.34;4976889;28;20203;-76
2021/07/11 04:43:08;;;;;;;14.50;6.88;;;19.10;99.90;;;19.69;74.35;101227.78;4993724;28;20191;-75
2021/07/11 04:45:35;;;;;;;13.18;6.60;;;19.10;99.90;;;19.73;74.33;101227.44;4994405;28;20610;-77
2021/07/11 04:48:04;;;;;;;14.70;6.78;;;19.20;99.90;;;19.77;74.16;101226.31;4994509;28;20588;-76
2021/07/11 04:50:31;;;;;;;12.60;6.93;;;19.30;99.90;;;19.80;74.04;101238.50;4993655;28;20191;-77
2021/07/11 04:52:58;;;;;;;14.13;7.35;;;19.30;99.90;;;19.80;73.83;101231.41;4976348;28;20572;-77
2021/07/11 04:55:25;;;;;;;13.93;6.68;;;19.30;99.90;;;19.81;73.84;101240.19;4976129;28;20569;-76
2021/07/11 04:57:51;;;;;;;13.23;6.32;;;19.30;99.90;;;19.81;73.73;101242.84;4992956;28;20207;-76
2021/07/11 05:00:20;;;;;;;12.70;7.03;;;19.30;99.90;;;19.79;73.67;101240.31;4994003;28;20198;-77
2021/07/11 05:02:48;;;;;;;12.73;6.53;;;19.20;99.90;;;19.79;73.63;101239.47;5008821;28;20194;-77
2021/07/11 05:05:16;;;;;;;13.68;6.80;;;19.30;99.90;;;19.77;73.61;101236.94;4976243;28;20186;-76
2021/07/11 05:07:43;;;;;;;12.05;6.10;;;19.20;99.90;;;19.76;73.30;101234.34;4993491;28;20210;-77
2021/07/11 05:10:13;;;;;;;14.35;6.78;;;19.20;99.90;;;19.76;73.45;101235.22;4993716;28;20191;-76
2021/07/11 05:12:40;;;;;;;13.00;6.55;;;19.20;99.90;;;19.76;73.42;101243.19;4976467;28;20289;-77
2021/07/11 05:15:09;;;;;;;13.20;6.30;;;19.20;99.90;;;19.78;73.55;101243.06;4975861;28;20190;-77
2021/07/11 05:17:36;;;;;;;17.38;6.60;;;19.20;99.90;;;19.78;74.15;101237.75;5008512;28;20214;-77
2021/07/11 05:20:07;;;;;;;14.50;6.70;;;19.20;99.90;;;19.79;73.74;101242.13;4976098;28;20273;-77
2021/07/11 05:22:35;;;;;;;11.90;6.47;;;19.30;99.90;;;19.78;74.07;101248.38;4975893;28;20191;-76
2021/07/11 05:25:05;;;;;;;13.65;6.40;;;19.30;99.90;;;19.78;73.77;101249.25;4992906;28;20182;-77
2021/07/11 05:27:31;;;;;;;11.77;6.22;;;19.20;99.90;;;19.80;73.87;101252.66;4975306;28;20248;-77
2021/07/11 05:29:58;;;;;;;12.05;6.50;;;19.30;99.90;;;19.82;73.66;101249.91;4975598;28;20206;-77
2021/07/11 05:32:25;;;;;;;12.02;6.13;;;19.30;99.90;;;19.83;73.83;101246.28;4975938;28;20191;-77
2021/07/11 05:34:52;;;;;;;12.63;6.82;;;19.30;99.90;;;19.85;73.87;101245.22;5009162;28;20293;-78
2021/07/11 05:37:19;;;;;;;13.23;7.00;;;19.30;99.90;;;19.87;73.82;101243.31;4993305;28;20187;-77
2021/07/11 05:39:47;;;;;;;12.57;6.28;;;19.40;99.90;;;19.89;73.54;101252.03;4975331;28;20198;-76
2021/07/11 05:42:15;;;;;;;12.90;6.80;;;19.40;99.90;;;19.95;73.59;101251.63;4975939;28;20199;-77
2021/07/11 05:44:41;;;;;;;12.43;5.88;;;19.50;99.90;;;20.00;73.62;101246.00;4993097;28;20605;-77
2021/07/11 05:47:08;;;;;;;13.10;7.25;;;19.50;99.90;;;20.08;73.37;101251.63;4993520;28;20574;-76
2021/07/11 05:49:35;;;;;;;14.60;6.85;;;19.60;99.90;;;20.12;72.53;101246.97;4994792;28;20186;-77
2021/07/11 05:52:03;;;;;;;13.13;7.15;;;19.60;99.90;;;20.17;72.42;101250.19;4975313;28;20665;-76
2021/07/11 05:54:30;;;;;;;14.70;7.15;;;19.70;99.90;;;20.19;72.08;101246.47;4975656;28;20205;-78
2021/07/11 05:56:58;;;;;;;13.00;6.43;;;19.70;99.90;;;20.22;71.82;101243.59;4994476;28;20206;-79
2021/07/11 05:59:25;;;;;;;14.10;6.72;;;19.80;99.90;;;20.24;71.81;101244.34;4975348;28;20222;-79
2021/07/11 06:01:51;;;;;;;15.80;6.90;;;19.80;99.90;;;20.27;71.94;101240.63;4993887;28;20199;-78
2021/07/11 06:04:18;;;;;;;13.73;6.72;;;19.80;99.90;;;20.30;71.23;101241.25;4975587;28;20206;-78
2021/07/11 06:06:47;;;;;;;11.50;6.15;;;19.80;99.90;;;20.33;71.31;101245.53;4992794;28;20207;-79
2021/07/11 06:09:14;;;;;;;11.88;6.38;;;19.80;99.90;;;20.36;71.15;101240.00;4976922;28;20623;-78
2021/07/11 06:11:41;;;;;;;12.68;6.88;;;19.90;99.90;;;20.38;71.23;101238.91;5011830;28;20646;-77
2021/07/11 06:14:09;;;;;;;15.80;6.80;;;19.90;99.90;;;20.41;71.13;101240.53;4979350;28;20195;-78
2021/07/11 06:16:36;;;;;;;11.80;6.32;;;19.90;99.90;;;20.45;71.11;101239.34;4978682;28;20191;-78
2021/07/11 06:19:04;;;;;;;13.23;7.03;;;20.00;99.90;;;20.49;71.37;101238.16;4978696;28;20211;-77
2021/07/11 06:21:31;;;;;;;14.93;7.03;;;20.00;99.90;;;20.53;71.13;101234.34;5011492;28;20693;-77
2021/07/11 06:23:57;;;;;;;13.00;7.05;;;20.10;99.90;;;20.61;71.19;101234.66;4995944;28;20187;-78
2021/07/11 06:26:24;;;;;;;13.20;6.22;;;20.20;99.90;;;20.65;71.30;101236.13;4996674;28;20211;-80
2021/07/11 06:28:51;;;;;;;11.98;6.43;;;20.20;99.90;;;20.74;70.96;101243.47;4996737;28;20207;-79
2021/07/11 06:31:19;;;;;;;12.77;6.18;;;20.30;99.90;;;20.81;70.56;101237.63;4978468;28;20194;-77
2021/07/11 06:33:46;;;;;;;12.35;5.93;;;20.40;99.90;;;20.86;70.57;101240.78;4995798;28;20202;-78
2021/07/11 06:36:13;;;;;;;11.77;6.13;;;20.50;99.90;;;20.93;70.36;101234.03;4978451;28;20282;-77
2021/07/11 06:38:40;;;;;;;12.10;5.82;;;20.60;99.90;;;21.00;70.33;101237.13;5011435;28;20210;-79
2021/07/11 06:41:07;;;;;;;12.20;6.25;;;20.60;99.90;;;21.07;70.52;101241.06;4979427;28;20658;-79
2021/07/11 06:43:34;;;;;;;10.82;5.47;;;20.70;99.90;;;21.15;70.23;101236.88;4995891;28;20284;-79
2021/07/11 06:46:01;;;;;;;13.75;5.93;;;20.80;99.90;;;21.24;70.18;101237.16;4978189;28;20289;-78
2021/07/11 06:48:31;;;;;;;11.35;5.65;;;20.90;99.90;;;21.34;70.11;101239.06;4995746;28;20221;-78
2021/07/11 06:50:59;;;;;;;10.80;5.22;;;21.10;99.90;;;21.43;69.49;101235.72;4995914;28;20206;-78
2021/07/11 06:53:26;;;;;;;10.82;5.28;;;21.20;99.90;;;21.55;68.95;101239.28;4978067;28;20281;-77
2021/07/11 06:55:53;;;;;;;9.90;5.35;;;21.30;99.90;;;21.65;68.67;101243.78;4978003;28;20195;-78
2021/07/11 06:58:20;;;;;;;11.88;5.30;;;21.40;99.90;;;21.75;68.27;101242.13;4994970;28;20218;-77
2021/07/11 07:00:47;;;;;;;10.38;5.57;;;21.50;99.90;;;21.85;68.63;101237.84;4995067;28;20198;-78
2021/07/11 07:03:14;;;;;;;11.00;5.25;;;21.60;99.90;;;21.95;68.03;101241.50;4995175;28;20187;-79
2021/07/11 07:05:42;;;;;;;12.13;5.15;;;21.80;99.90;;;22.07;67.36;101237.91;4995179;28;20190;-79
2021/07/11 07:08:09;;;;;;;9.38;4.80;;;21.90;99.90;;;22.18;67.35;101235.28;4994729;28;20704;-79
2021/07/11 07:10:36;;;;;;;9.18;4.80;;;22.10;99.90;;;22.29;66.96;101229.94;4990732;28;20195;-80
2021/07/11 07:13:03;;;;;;;10.20;4.78;;;22.20;99.90;;;22.39;66.21;101238.06;5017336;28;20197;-79
2021/07/11 07:15:30;;;;;;;9.70;4.75;;;22.30;99.90;;;22.48;66.35;101242.72;4999842;28;20178;-80
2021/07/11 07:17:57;;;;;;;11.43;5.20;;;22.40;99.90;;;22.57;66.23;101239.38;4996221;28;20202;-79
2021/07/11 07:20:24;;;;;;;9.07;4.43;;;22.70;99.90;;;22.70;65.62;101241.91;4996199;28;20190;-75
2021/07/11 07:22:52;;;;;;;10.82;4.93;;;23.10;99.90;;;22.82;65.35;101235.59;4979201;28;20198;-78
2021/07/11 07:25:19;;;;;;;10.23;4.03;;;23.60;99.90;;;22.94;64.77;101237.28;4979875;28;20191;-79
2021/07/11 07:27:48;;;;;;;9.20;4.13;;;24.00;99.90;;;23.06;64.25;101236.25;4980599;28;20230;-77
2021/07/11 07:30:18;;;;;;;10.25;4.22;;;24.20;99.90;;;23.15;63.79;101235.53;4978947;28;20202;-79
2021/07/11 07:32:48;;;;;;;7.43;3.10;;;24.10;99.90;;;23.20;64.29;101236.00;4996464;28;20179;-78
2021/07/11 07:35:15;;;;;;;7.15;3.15;;;24.00;99.90;;;23.29;62.84;101235.28;4994725;28;20194;-78
2021/07/11 07:37:43;;;;;;;8.27;3.50;;;23.90;99.90;;;23.38;62.63;101243.41;4977083;28;20214;-78
2021/07/11 07:40:13;;;;;;;7.07;3.10;;;23.80;99.90;;;23.46;61.85;101232.09;4977026;28;20203;-78
2021/07/11 07:42:40;;;;;;;8.57;3.40;;;23.70;99.90;;;23.53;61.57;101233.25;4994568;28;20692;-78
2021/07/11 07:45:08;;;;;;;8.45;3.58;;;23.80;99.90;;;23.61;60.88;101238.81;4994423;28;20191;-79
2021/07/11 07:47:35;;;;;;;8.57;3.38;;;23.80;99.90;;;23.65;61.02;101234.91;4976452;28;20226;-78
2021/07/11 07:50:03;;;;;;;8.70;3.30;;;23.80;99.90;;;23.73;59.97;101239.63;4993956;28;20190;-78
2021/07/11 07:52:30;;;;;;;9.32;3.00;;;23.80;99.90;;;23.79;59.55;101237.28;4994535;28;20673;-79
2021/07/11 07:54:57;;;;;;;7.78;3.05;;;23.90;99.90;;;23.87;59.43;101237.47;4994774;28;20187;-78
2021/07/11 07:57:25;;;;;;;7.63;2.83;;;24.00;99.90;;;23.92;59.71;101232.59;4994315;28;20195;-76
2021/07/11 07:59:52;;;;;;;7.50;2.85;;;24.00;99.90;;;23.94;59.67;101243.16;4976880;28;20202;-78
2021/07/11 08:02:19;;;;;;;8.27;3.20;;;24.00;99.90;;;23.97;59.59;101242.88;4998000;28;20195;-79
2021/07/11 08:04:45;;;;;;;10.23;3.88;;;24.00;99.90;;;23.99;60.12;101236.47;4997374;28;20257;-80
2021/07/11 08:07:12;;;;;;;8.45;3.75;;;24.00;99.90;;;24.01;60.68;101245.22;5001228;28;20202;-81
2021/07/11 08:09:39;;;;;;;7.82;3.13;;;24.10;99.90;;;24.04;60.10;101242.28;5018904;28;20183;-81
2021/07/11 08:12:06;;;;;;;7.57;3.58;;;24.10;99.90;;;24.13;58.64;101243.34;5001946;28;20182;-83
2021/07/11 08:14:35;;;;;;;9.23;3.78;;;24.20;99.90;;;24.24;58.27;101244.09;5034527;28;20208;-80
2021/07/11 08:17:02;;;;;;;7.72;3.20;;;24.40;99.90;;;24.33;58.05;101237.94;5001656;28;20179;-81
2021/07/11 08:19:29;;;;;;;8.68;3.70;;;24.50;99.90;;;24.40;58.02;101241.78;5018580;28;20197;-80
2021/07/11 08:21:57;;;;;;;10.07;3.72;;;24.50;99.90;;;24.48;57.66;101243.81;5001880;28;20221;-82
2021/07/11 08:24:26;;;;;;;7.80;3.80;;;24.60;99.90;;;24.51;57.75;101241.72;5001616;28;20188;-81
2021/07/11 08:26:53;;;;;;;8.82;3.65;;;24.60;99.90;;;24.54;57.75;101238.78;5033962;28;20223;-80
2021/07/11 08:29:20;;;;;;;8.20;3.50;;;24.70;99.90;;;24.58;57.42;101245.53;5001580;28;20202;-80
2021/07/11 08:31:52;;;;;;;7.80;3.53;;;24.70;99.90;;;24.63;58.23;101245.97;5033518;28;20217;-81
2021/07/11 08:34:19;;;;;;;7.40;3.17;;;24.80;99.90;;;24.64;57.61;101244.16;5018111;28;20190;-80
2021/07/11 08:36:46;;;;;;;8.50;3.78;;;24.80;99.90;;;24.68;57.69;101235.75;5017810;28;20200;-80
2021/07/11 08:39:13;;;;;;;10.85;3.65;;;24.80;99.90;;;24.69;58.15;101247.31;4986306;28;20245;-80
2021/07/11 08:41:42;;;;;;;9.00;3.63;;;24.80;99.90;;;24.70;58.70;101246.31;5000612;28;20190;-79
2021/07/11 08:44:09;;;;;;;8.98;3.70;;;24.90;99.90;;;24.70;58.43;101239.16;5000417;28;20194;-79
2021/07/11 08:46:36;;;;;;;8.35;3.58;;;24.90;99.90;;;24.75;56.43;101242.28;4976948;28;20214;-79
2021/07/11 08:49:04;;;;;;;9.05;3.78;;;25.00;99.90;;;24.82;56.09;101234.53;4977125;28;20218;-79
2021/07/11 08:51:32;;;;;;;8.43;3.38;;;25.00;99.90;;;24.87;55.82;101245.69;5009926;28;20197;-79
2021/07/11 08:54:00;;;;;;;8.32;3.40;;;25.00;99.90;;;24.90;55.71;101240.06;4996249;28;20189;-79
2021/07/11 08:56:28;;;;;;;7.60;3.55;;;25.00;99.90;;;24.91;56.08;101230.19;4994060;28;20187;-79
2021/07/11 08:58:57;;;;;;;9.98;4.10;;;25.00;99.90;;;24.95;56.31;101231.63;4976964;28;20206;-77
2021/07/11 09:01:27;;;;;;;9.40;3.53;;;25.10;99.90;;;24.98;56.64;101234.88;4976527;28;20202;-78
2021/07/11 09:04:05;;;;;;;8.65;3.60;;;25.20;99.90;;;25.08;56.44;101245.63;4976776;28;20194;-79
2021/07/11 09:06:44;;;;;;;8.50;3.85;;;25.20;99.90;;;25.15;55.88;101233.38;5008524;28;20205;-79
2021/07/11 09:09:11;;;;;;;8.88;3.83;;;25.30;99.90;;;25.22;55.83;101239.88;5009606;28;20214;-79
2021/07/11 09:11:47;;;;;;;9.07;3.65;;;25.50;99.90;;;25.29;55.22;101241.00;4993256;28;20205;-78
2021/07/11 09:14:23;;;;;;;9.27;3.90;;;25.50;99.90;;;25.38;54.31;101240.22;4976050;28;20190;-77
2021/07/11 09:16:51;;;;;;;9.65;4.35;;;25.60;99.90;;;25.43;54.25;101235.28;4975668;28;20201;-79
2021/07/11 09:19:39;;;;;;;9.35;3.75;;;25.70;99.90;;;25.47;54.63;101234.03;4993862;28;20210;-80
2021/07/11 09:22:08;;;;;;;8.95;4.10;;;25.70;99.90;;;25.51;55.10;101238.94;4977177;28;20198;-79
2021/07/11 09:24:38;;;;;;;9.43;4.63;;;25.70;99.90;;;25.55;55.32;101235.00;4976134;28;20198;-79
2021/07/11 09:27:10;;;;;;;9.80;4.00;;;25.80;99.90;;;25.61;54.72;101233.59;5007754;28;20217;-78
2021/07/11 09:29:39;;;;;;;9.05;4.25;;;25.80;99.90;;;25.67;55.31;101225.00;4996013;28;20191;-79
2021/07/11 09:32:07;;;;;;;8.75;3.58;;;25.90;99.90;;;25.70;55.00;101232.75;5008953;28;20194;-79
2021/07/11 09:34:40;;;;;;;8.98;4.30;;;25.90;99.90;;;25.72;54.54;101228.09;4994393;28;20191;-79
2021/07/11 09:37:14;;;;;;;8.30;3.65;;;25.90;99.90;;;25.74;54.48;101231.47;4995292;28;20186;-79
2021/07/11 09:39:55;;;;;;;10.02;4.32;;;26.00;99.90;;;25.78;54.14;101238.25;4996570;28;20198;-79
2021/07/11 09:42:35;;;;;;;11.80;4.65;;;26.00;99.90;;;25.87;52.80;101230.19;4997249;28;20248;-78
2021/07/11 09:45:07;;;;;;;8.27;3.97;;;26.10;99.90;;;25.98;50.48;101245.28;5001027;28;20672;-79
2021/07/11 09:47:34;;;;;;;7.70;3.50;;;26.10;99.90;;;26.04;49.86;101238.53;4981964;28;20741;-80
2021/07/11 09:50:13;;;;;;;8.85;3.90;;;26.20;99.90;;;26.11;48.74;101239.66;4999151;28;20194;-78
2021/07/11 09:52:44;;;;;;;9.55;4.38;;;26.30;99.90;;;26.14;49.55;101242.88;4979939;28;20229;-80
2021/07/11 09:55:16;;;;;;;8.32;3.83;;;26.30;99.90;;;26.21;48.94;101235.94;5017906;28;20252;-79
2021/07/11 09:57:46;;;;;;;9.70;3.30;;;26.40;99.90;;;26.27;49.16;101242.59;5019199;28;20217;-78
2021/07/11 10:00:23;;;;;;;7.93;3.40;;;26.50;99.90;;;26.28;48.15;101242.44;5034015;28;20244;-80
2021/07/11 10:02:55;;;;;;;7.60;3.13;;;26.50;99.90;;;26.30;47.79;101237.78;5019170;28;20181;-80
2021/07/11 10:05:25;;;;;;;8.07;3.10;;;26.60;99.90;;;26.33;47.95;101240.16;5018965;28;20538;-79
2021/07/11 10:07:54;;;;;;;8.45;3.38;;;26.60;99.90;;;26.36;48.33;101245.25;5018474;28;20745;-79
2021/07/11 10:10:24;;;;;;;7.45;3.20;;;26.60;99.90;;;26.42;48.02;101239.31;5018679;28;20182;-80
2021/07/11 10:12:52;;;;;;;8.02;3.45;;;26.60;99.90;;;26.43;47.67;101235.63;4999410;28;20648;-78
2021/07/11 10:15:22;;;;;;;7.18;3.00;;;26.70;99.90;;;26.49;47.62;101245.75;5017075;28;20572;-78
2021/07/11 10:17:52;;;;;;;9.80;3.85;;;26.70;99.90;;;26.55;47.78;101238.97;5016775;28;20198;-78